createdAt,value
2019-04-22T00:03:10.615Z,3349.94
2019-04-22T00:09:02.060Z,2051.87
2019-04-22T00:14:00.546Z,1501.12
2019-04-22T00:23:51.124Z,1237.35
2019-04-22T00:29:09.964Z,2331.02
2019-04-22T00:33:51.549Z,2341.17
2019-04-22T00:39:14.889Z,853.97
2019-04-22T00:43:56.438Z,1273.67
2019-04-22T00:49:11.634Z,1090.83
2019-04-22T00:58:49.783Z,3804.81
2019-04-22T01:04:12.305Z,3815.6
2019-04-22T01:09:29.848Z,939.25
2019-04-22T01:13:44.067Z,390.6
2019-04-22T01:18:58.764Z,367.08
2019-04-22T01:23:47.358Z,232.54
2019-04-22T01:28:34.016Z,444.92
2019-04-22T01:33:19.062Z,328.42
2019-04-22T01:38:36.112Z,283.13
2019-04-22T01:44:50.320Z,295.27
2019-04-22T01:49:33.160Z,213.61
2019-04-22T01:54:54.375Z,524.46
2019-04-22T01:58:37.925Z,361.46
2019-04-22T02:03:46.310Z,334.06
2019-04-22T02:09:16.948Z,335.42
2019-04-22T02:14:03.835Z,261
2019-04-22T02:19:00.660Z,220.45
2019-04-22T02:23:53.082Z,242.61
2019-04-22T04:09:38.285Z,198.84
2019-04-22T04:14:45.853Z,277.2
2019-04-22T04:35:29.797Z,228.37
2019-04-22T05:07:40.159Z,404.72
2019-04-22T05:27:27.804Z,450.89
2019-04-22T05:32:24.283Z,450.59
2019-04-22T05:37:20.402Z,450.89
2019-04-22T05:42:33.962Z,406.43
2019-04-22T05:47:07.837Z,508.96
2019-04-22T05:52:14.191Z,486.83
2019-04-22T05:57:09.191Z,390.14
2019-04-22T06:02:30.238Z,437.96
2019-04-22T06:06:59.638Z,789.78
2019-04-22T06:17:16.682Z,558.92
2019-04-22T06:27:27.594Z,922.5
2019-04-22T06:32:26.169Z,1163.49
2019-04-22T06:37:17.273Z,1729.9
2019-04-22T06:49:34.815Z,2044.07
2019-04-22T06:54:38.905Z,2091.76
2019-04-22T06:59:31.000Z,2438.8
2019-04-22T07:09:34.813Z,3608.32
2019-04-22T07:14:21.895Z,2476.98
2019-04-22T07:19:33.145Z,2579.1
2019-04-22T07:24:45.383Z,3133.37
2019-04-22T07:29:24.742Z,2784.68
2019-04-22T07:34:32.925Z,2880.09
2019-04-22T07:44:44.543Z,3796.75
2019-04-22T07:49:32.113Z,3435.5
2019-04-22T07:54:31.410Z,3856.63
2019-04-22T07:59:40.181Z,3304.67
2019-04-22T08:04:57.754Z,3407.22
2019-04-22T08:09:35.436Z,3534.82
2019-04-22T08:14:34.265Z,4494.57
2019-04-22T08:19:34.892Z,4543.92
2019-04-22T08:24:28.278Z,5233.46
2019-04-22T08:29:44.905Z,6263.1
2019-04-22T08:34:24.438Z,7041.88
2019-04-22T08:39:35.494Z,8380.06
2019-04-22T08:44:38.648Z,4388.25
2019-04-22T08:49:31.784Z,7018.92
2019-04-22T08:54:29.583Z,7652.92
2019-04-22T08:59:36.466Z,6941.94
2019-04-22T09:04:22.658Z,8102.41
2019-04-22T09:09:31.043Z,10695.83
2019-04-22T09:14:41.505Z,10642.93
2019-04-22T09:19:33.611Z,10611.44
2019-04-22T09:24:35.473Z,10306.51
2019-04-22T09:29:39.408Z,11013.31
2019-04-22T09:34:33.547Z,10685.2
2019-04-22T09:39:33.995Z,11398.3
2019-04-22T09:44:30.704Z,11508.02
2019-04-22T09:49:44.111Z,7309.78
2019-04-22T09:54:52.667Z,5803.67
2019-04-22T09:59:50.479Z,9505.3
2019-04-22T10:04:32.808Z,10286.81
2019-04-22T10:09:49.338Z,7735.44
2019-04-22T10:19:35.701Z,12855.44
2019-04-22T10:24:31.768Z,12917.17
2019-04-22T10:29:34.769Z,12917.17
2019-04-22T10:34:03.485Z,12917.17
2019-04-22T10:38:36.834Z,9049.62
2019-04-22T10:43:37.174Z,12917.17
2019-04-22T10:48:36.729Z,11955.56
2019-04-22T10:53:35.746Z,12917.17
2019-04-22T10:58:35.713Z,12144.47
2019-04-22T11:03:37.370Z,8642.57
2019-04-22T11:08:50.177Z,10366.09
2019-04-22T11:13:36.050Z,12917.17
2019-04-22T11:18:35.871Z,10749.25
2019-04-22T11:23:36.611Z,12917.17
2019-04-22T11:28:36.002Z,12917.17
2019-04-22T11:33:36.494Z,10376.08
2019-04-22T11:38:45.729Z,10037.31
2019-04-22T11:43:36.334Z,5546.39
2019-04-22T11:48:36.043Z,6746.08
2019-04-22T11:53:41.034Z,5791.17
2019-04-22T11:58:37.345Z,7187.71
2019-04-22T12:03:35.887Z,5501.02
2019-04-22T12:08:37.341Z,3008.95
2019-04-22T12:13:35.929Z,4723.44
2019-04-22T12:18:37.456Z,5198.07
2019-04-22T12:23:37.206Z,6741.85
2019-04-22T12:26:21.388Z,5705.2
2019-04-22T12:31:21.972Z,7825.46
2019-04-22T12:36:22.713Z,5754.01
2019-04-22T12:41:21.841Z,2363.8
2019-04-22T12:51:28.889Z,4249.6
2019-04-22T12:56:27.986Z,6928.52
2019-04-22T13:01:29.048Z,6545.01
2019-04-22T13:06:28.039Z,4578.72
2019-04-22T13:11:36.856Z,3677.38
2019-04-22T13:16:29.414Z,3551.16
2019-04-22T13:21:28.981Z,4199.84
2019-04-22T13:26:27.465Z,2995.55
2019-04-22T13:31:28.972Z,3479.95
2019-04-22T13:36:31.531Z,5766.35
2019-04-22T13:41:42.849Z,3851.11
2019-04-22T13:46:33.613Z,4637.93
2019-04-22T13:54:52.770Z,2185.22
2019-04-22T14:01:28.434Z,5977.78
2019-04-22T14:06:29.195Z,4054.26
2019-04-22T14:11:49.286Z,6450.84
2019-04-22T14:16:29.070Z,8308.88
2019-04-22T14:21:27.435Z,5575.13
2019-04-22T14:26:54.829Z,3385.78
2019-04-22T14:31:28.790Z,4786.48
2019-04-22T14:36:27.693Z,6991.55
2019-04-22T14:41:52.152Z,3477.7
2019-04-22T14:47:25.535Z,5198.07
2019-04-22T14:56:28.761Z,5461.93
2019-04-22T15:01:28.876Z,4283.44
2019-04-22T15:06:28.614Z,3864.94
2019-04-22T15:11:36.374Z,6004.46
2019-04-22T15:16:28.088Z,5290.07
2019-04-22T15:21:28.985Z,5552.12
2019-04-22T15:26:28.686Z,9926.2
2019-04-22T15:31:29.335Z,3509.46
2019-04-22T15:36:28.403Z,10316.39
2019-04-22T15:41:28.718Z,10738.52
2019-04-22T15:46:28.076Z,2399.64
2019-04-22T15:51:29.003Z,3183.43
2019-04-22T15:56:28.550Z,4641.93
2019-04-22T16:01:37.291Z,3005.59
2019-04-22T16:06:28.183Z,4904.28
2019-04-22T16:11:28.060Z,4670.14
2019-04-22T16:16:28.492Z,4567.06
2019-04-22T16:21:46.000Z,4242.9
2019-04-22T16:26:28.495Z,4528.62
2019-04-22T16:31:29.483Z,3042.99
2019-04-22T16:36:29.200Z,2708.96
2019-04-22T16:41:28.844Z,2048.74
2019-04-22T16:46:28.090Z,1378.07
2019-04-22T16:51:28.039Z,1795.73
2019-04-22T16:56:33.833Z,1762.78
2019-04-22T17:01:28.573Z,1065.77
2019-04-22T17:06:28.042Z,795.39
2019-04-22T17:11:28.028Z,512.06
2019-04-22T17:16:28.563Z,508.58
2019-04-22T17:21:28.031Z,700.55
2019-04-22T17:26:28.669Z,466.55
2019-04-22T17:31:29.113Z,455.79
2019-04-22T17:36:29.943Z,495.45
2019-04-22T17:42:13.890Z,324.23
2019-04-22T17:46:50.781Z,649.11
2019-04-22T17:52:24.261Z,346.68
2019-04-22T17:57:15.138Z,397.06
2019-04-22T18:01:56.515Z,480.22
2019-04-22T18:12:24.445Z,425.75
2019-04-22T18:17:10.790Z,498.02
2019-04-22T18:21:59.321Z,491.1
2019-04-22T18:27:19.661Z,686.94
2019-04-22T18:31:45.995Z,828.2
2019-04-22T18:36:54.646Z,549.78
2019-04-22T18:42:03.033Z,455.17
2019-04-22T19:01:30.166Z,510.51
2019-04-22T19:07:16.503Z,636.2
2019-04-22T19:12:33.601Z,652.89
2019-04-22T19:22:07.297Z,339.55
2019-04-22T19:27:15.113Z,398.24
2019-04-22T19:32:11.277Z,446.4
2019-04-22T19:37:12.818Z,571.28
2019-04-22T19:52:28.551Z,734.24
2019-04-22T19:56:54.805Z,1403.97
2019-04-22T20:02:04.261Z,829.22
2019-04-22T20:07:00.443Z,1496.11
2019-04-22T20:12:10.398Z,2169.35
2019-04-22T20:22:12.493Z,2169.35
2019-04-22T20:27:36.187Z,2018.01
2019-04-22T20:37:22.135Z,2271.96
2019-04-22T20:42:16.299Z,2262.41
2019-04-22T20:47:04.093Z,2048.74
2019-04-22T20:52:25.967Z,2078.82
2019-04-22T20:57:00.626Z,1807.8
2019-04-22T21:02:06.223Z,1761.62
2019-04-22T21:07:04.880Z,1476.4
2019-04-22T21:11:56.372Z,1601.19
2019-04-22T21:17:16.927Z,1398.13
2019-04-22T21:22:14.454Z,1058.22
2019-04-22T21:27:20.248Z,763.34
2019-04-22T21:38:14.079Z,502.11
2019-04-22T21:42:04.595Z,1048.32
2019-04-22T21:47:34.752Z,514.81
2019-04-22T21:52:16.749Z,699.09
2019-04-22T21:57:27.443Z,960.03
2019-04-22T22:02:22.892Z,1113.41
2019-04-22T22:06:50.850Z,532.77
2019-04-22T22:12:07.204Z,565.51
2019-04-22T22:16:55.973Z,893.69
2019-04-22T22:22:34.672Z,600.92
2019-04-22T22:36:51.490Z,638.01
2019-04-22T22:41:30.104Z,619.2
2019-04-22T22:46:52.626Z,858.88
2019-04-22T22:57:37.840Z,2208.54
2019-04-22T23:02:05.801Z,2223.14
2019-04-22T23:07:40.374Z,2138.31
2019-04-22T23:12:34.192Z,1882.44
2019-04-22T23:16:49.190Z,2493.05
2019-04-22T23:21:45.460Z,1278.52
2019-04-22T23:31:51.997Z,987.52
2019-04-22T23:36:55.450Z,646.61
2019-04-22T23:46:55.254Z,1050.78
2019-04-22T23:56:55.867Z,1102.46
